Kriti Amber — SVCQ9 — position and weather

sailwx.info

Track history (hours):
 
Tides and Currents Weather Stations Pressure Air Temp Water Temp Dewpoint Dewpoint Depression Visibility Wind Speed Wind Dir Waves Ship Positions

Kriti Amber

Last reported at 2018-Jan-28 19:20 UTC. Time now 2018-Feb-19 04:30 UTC.
Position N 37°05' E 015°50'.
Warning: this ship's position is 21 days out of date.

Length 189 m; draft 8.1 m.

Type: Tanker. MMSI: 241525000.

Date/timePositionNaut miles runAvg speedWind from/ knotsBaromVisibWave heightAir tempDewpointWater temp
2018-Jan-28 19:20N 37°05' E 015°50'1512.8
2018-Jan-28 18:10N 37°09' E 015°32'  
2018-Jan-23 14:25N 37°09' E 015°29'5710.3
2018-Jan-23 08:50N 36°27' E 014°41'613.1
2018-Jan-23 08:25N 36°27' E 014°34'513.1
2018-Jan-23 08:00N 36°29' E 014°28'713.2
2018-Jan-23 07:29N 36°31' E 014°20'613.1
2018-Jan-23 07:00N 36°33' E 014°12'613.2
2018-Jan-23 06:30N 36°35' E 014°05'35313.0
2018-Jan-22 03:22N 37°21' E 006°46'513.2
2018-Jan-22 03:00N 37°22' E 006°40'813.2
2018-Jan-22 02:25N 37°22' E 006°31'513.0
2018-Jan-22 02:00N 37°22' E 006°24'612.8
2018-Jan-22 01:31N 37°21' E 006°16'713.0
2018-Jan-22 01:00N 37°21' E 006°08'2313.3
2018-Jan-21 23:14N 37°19' E 005°38'514.0
2018-Jan-21 22:54N 37°19' E 005°32'614.0
2018-Jan-21 22:30N 37°18' E 005°25'714.4
2018-Jan-21 22:00N 37°18' E 005°16'714.6
2018-Jan-21 21:30N 37°17' E 005°07'714.7
2018-Jan-21 21:00N 37°16' E 004°58'713.7
2018-Jan-21 20:30N 37°16' E 004°49'713.6
2018-Jan-21 20:00N 37°16' E 004°41'813.6
2018-Jan-21 19:27N 37°15' E 004°31'613.6
2018-Jan-21 19:00N 37°15' E 004°24'713.4
2018-Jan-21 18:30N 37°14' E 004°16'713.3
2018-Jan-21 18:00N 37°14' E 004°07'713.4
2018-Jan-21 17:30N 37°13' E 003°59'612.9
2018-Jan-21 17:00N 37°13' E 003°51'612.3
2018-Jan-21 16:30N 37°12' E 003°43'612.0
2018-Jan-21 16:00N 37°12' E 003°36'612.3
2018-Jan-21 15:30N 37°11' E 003°28'612.7
2018-Jan-21 15:00N 37°10' E 003°20'612.8
2018-Jan-21 14:30N 37°09' E 003°12'612.9
2018-Jan-21 14:00N 37°07' E 003°04'713.2
2018-Jan-21 13:30N 37°06' E 002°56'713.1
2018-Jan-21 13:00N 37°05' E 002°48'713.1
2018-Jan-21 12:30N 37°04' E 002°40'713.3
2018-Jan-21 12:00N 37°03' E 002°32'713.5
2018-Jan-21 11:30N 37°01' E 002°24'713.9
2018-Jan-21 11:00N 36°60' E 002°15'714.3
2018-Jan-21 10:30N 36°58' E 002°06'714.6
2018-Jan-21 10:00N 36°56' E 001°57'714.5
2018-Jan-21 09:30N 36°55' E 001°49'714.2
2018-Jan-21 09:00N 36°53' E 001°40'713.9
2018-Jan-21 08:30N 36°52' E 001°31'713.8
2018-Jan-21 08:00N 36°51' E 001°23'713.8
2018-Jan-21 07:30N 36°49' E 001°14'714.1
2018-Jan-21 07:00N 36°48' E 001°06'714.0
2018-Jan-21 06:30N 36°46' E 000°58'714.5
2018-Jan-21 06:00N 36°44' E 000°49'713.9
2018-Jan-21 05:30N 36°42' E 000°40'713.4
2018-Jan-21 05:00N 36°40' E 000°33'813.8
2018-Jan-21 04:28N 36°37' E 000°24'613.6
2018-Jan-21 04:00N 36°35' E 000°16'714.0
2018-Jan-21 03:30N 36°33' E 000°08'713.7
2018-Jan-21 03:00N 36°31' W 000°00'713.5
2018-Jan-21 02:30N 36°29' W 000°08'713.5
2018-Jan-21 02:00N 36°27' W 000°16'713.5
2018-Jan-21 01:30N 36°25' W 000°24'713.6
2018-Jan-21 01:01N 36°23' W 000°32'714.1
2018-Jan-21 00:30N 36°21' W 000°41'713.9
2018-Jan-21 00:00N 36°19' W 000°49'713.4
2018-Jan-20 23:30N 36°17' W 000°57'713.3
2018-Jan-20 23:00N 36°15' W 001°05'714.0
2018-Jan-20 22:30N 36°13' W 001°13'714.2
2018-Jan-20 22:00N 36°10' W 001°21'713.8
2018-Jan-20 21:30N 36°08' W 001°29'713.7
2018-Jan-20 21:00N 36°07' W 001°37'713.8
2018-Jan-20 20:30N 36°05' W 001°46'713.8
2018-Jan-20 20:00N 36°03' W 001°54'713.6
2018-Jan-20 19:30N 36°01' W 002°02'713.6
2018-Jan-20 19:00N 35°59' W 002°10'713.6
2018-Jan-20 18:30N 35°57' W 002°18'713.7
2018-Jan-20 18:00N 35°55' W 002°26'713.5
2018-Jan-20 17:29N 35°53' W 002°34'713.6
2018-Jan-20 16:59N 35°51' W 002°42'3113.0
2018-Jan-20 14:36N 35°48' W 003°21'1013.0
2018-Jan-20 13:50N 35°49' W 003°33'8314.6
2018-Jan-20 08:12N 36°00' W 005°14'313.6
2018-Jan-20 08:00N 36°01' W 005°17'6 4.9
2018-Jan-20 06:44N 36°04' W 005°23'0 1.3
2018-Jan-20 06:26N 36°04' W 005°23'1 2.6
2018-Jan-20 05:58N 36°03' W 005°23'3 7.0
2018-Jan-20 05:30N 35°60' W 005°23'5 9.8
2018-Jan-20 05:00N 35°57' W 005°28'  
Track history (hours):
 
Tides and Currents Weather Stations Pressure Air Temp Water Temp Dewpoint Dewpoint Depression Visibility Wind Speed Wind Dir Waves Ship Positions

Kriti Amber

Last reported at 2018-Jan-28 19:20 UTC. Time now 2018-Feb-19 04:30 UTC.
Position N 37°05' E 015°50'.
Warning: this ship's position is 21 days out of date.

Length 189 m; draft 8.1 m.

Type: Tanker. MMSI: 241525000.

Date/timePositionNaut miles runAvg speedWind from/ knotsBaromVisibWave heightAir tempDewpointWater temp
2018-Jan-28 19:20N 37°05' E 015°50'1512.8
2018-Jan-28 18:10N 37°09' E 015°32'  
2018-Jan-23 14:25N 37°09' E 015°29'5710.3
2018-Jan-23 08:50N 36°27' E 014°41'613.1
2018-Jan-23 08:25N 36°27' E 014°34'513.1
2018-Jan-23 08:00N 36°29' E 014°28'713.2
2018-Jan-23 07:29N 36°31' E 014°20'613.1
2018-Jan-23 07:00N 36°33' E 014°12'613.2
2018-Jan-23 06:30N 36°35' E 014°05'35313.0
2018-Jan-22 03:22N 37°21' E 006°46'513.2
2018-Jan-22 03:00N 37°22' E 006°40'813.2
2018-Jan-22 02:25N 37°22' E 006°31'513.0
2018-Jan-22 02:00N 37°22' E 006°24'612.8
2018-Jan-22 01:31N 37°21' E 006°16'713.0
2018-Jan-22 01:00N 37°21' E 006°08'2313.3
2018-Jan-21 23:14N 37°19' E 005°38'514.0
2018-Jan-21 22:54N 37°19' E 005°32'614.0
2018-Jan-21 22:30N 37°18' E 005°25'714.4
2018-Jan-21 22:00N 37°18' E 005°16'714.6
2018-Jan-21 21:30N 37°17' E 005°07'714.7
2018-Jan-21 21:00N 37°16' E 004°58'713.7
2018-Jan-21 20:30N 37°16' E 004°49'713.6
2018-Jan-21 20:00N 37°16' E 004°41'813.6
2018-Jan-21 19:27N 37°15' E 004°31'613.6
2018-Jan-21 19:00N 37°15' E 004°24'713.4
2018-Jan-21 18:30N 37°14' E 004°16'713.3
2018-Jan-21 18:00N 37°14' E 004°07'713.4
2018-Jan-21 17:30N 37°13' E 003°59'612.9
2018-Jan-21 17:00N 37°13' E 003°51'612.3
2018-Jan-21 16:30N 37°12' E 003°43'612.0
2018-Jan-21 16:00N 37°12' E 003°36'612.3
2018-Jan-21 15:30N 37°11' E 003°28'612.7
2018-Jan-21 15:00N 37°10' E 003°20'612.8
2018-Jan-21 14:30N 37°09' E 003°12'612.9
2018-Jan-21 14:00N 37°07' E 003°04'713.2
2018-Jan-21 13:30N 37°06' E 002°56'713.1
2018-Jan-21 13:00N 37°05' E 002°48'713.1
2018-Jan-21 12:30N 37°04' E 002°40'713.3
2018-Jan-21 12:00N 37°03' E 002°32'713.5
2018-Jan-21 11:30N 37°01' E 002°24'713.9
2018-Jan-21 11:00N 36°60' E 002°15'714.3
2018-Jan-21 10:30N 36°58' E 002°06'714.6
2018-Jan-21 10:00N 36°56' E 001°57'714.5
2018-Jan-21 09:30N 36°55' E 001°49'714.2
2018-Jan-21 09:00N 36°53' E 001°40'713.9
2018-Jan-21 08:30N 36°52' E 001°31'713.8
2018-Jan-21 08:00N 36°51' E 001°23'713.8
2018-Jan-21 07:30N 36°49' E 001°14'714.1
2018-Jan-21 07:00N 36°48' E 001°06'714.0
2018-Jan-21 06:30N 36°46' E 000°58'714.5
2018-Jan-21 06:00N 36°44' E 000°49'713.9
2018-Jan-21 05:30N 36°42' E 000°40'713.4
2018-Jan-21 05:00N 36°40' E 000°33'813.8
2018-Jan-21 04:28N 36°37' E 000°24'613.6
2018-Jan-21 04:00N 36°35' E 000°16'714.0
2018-Jan-21 03:30N 36°33' E 000°08'713.7
2018-Jan-21 03:00N 36°31' W 000°00'713.5
2018-Jan-21 02:30N 36°29' W 000°08'713.5
2018-Jan-21 02:00N 36°27' W 000°16'713.5
2018-Jan-21 01:30N 36°25' W 000°24'713.6
2018-Jan-21 01:01N 36°23' W 000°32'714.1
2018-Jan-21 00:30N 36°21' W 000°41'713.9
2018-Jan-21 00:00N 36°19' W 000°49'713.4
2018-Jan-20 23:30N 36°17' W 000°57'713.3
2018-Jan-20 23:00N 36°15' W 001°05'714.0
2018-Jan-20 22:30N 36°13' W 001°13'714.2
2018-Jan-20 22:00N 36°10' W 001°21'713.8
2018-Jan-20 21:30N 36°08' W 001°29'713.7
2018-Jan-20 21:00N 36°07' W 001°37'713.8
2018-Jan-20 20:30N 36°05' W 001°46'713.8
2018-Jan-20 20:00N 36°03' W 001°54'713.6
2018-Jan-20 19:30N 36°01' W 002°02'713.6
2018-Jan-20 19:00N 35°59' W 002°10'713.6
2018-Jan-20 18:30N 35°57' W 002°18'713.7
2018-Jan-20 18:00N 35°55' W 002°26'713.5
2018-Jan-20 17:29N 35°53' W 002°34'713.6
2018-Jan-20 16:59N 35°51' W 002°42'3113.0
2018-Jan-20 14:36N 35°48' W 003°21'1013.0
2018-Jan-20 13:50N 35°49' W 003°33'8314.6
2018-Jan-20 08:12N 36°00' W 005°14'313.6
2018-Jan-20 08:00N 36°01' W 005°17'6 4.9
2018-Jan-20 06:44N 36°04' W 005°23'0 1.3
2018-Jan-20 06:26N 36°04' W 005°23'1 2.6
2018-Jan-20 05:58N 36°03' W 005°23'3 7.0
2018-Jan-20 05:30N 35°60' W 005°23'5 9.8
2018-Jan-20 05:00N 35°57' W 005°28'  

Dump ship's entire track history